x

Grays Reef - 40 Nm Southeast Of Savannah, Ga (41008) Wave Buoy

5:50am - Mon 30th Mar 2015 All times are EDT. -4 hours from GMT.

  • Sig Wave height 2.6ft
  • Swell Direction
  • Peak Period 9s
  • Average Period 5s
  • Wind
    16mph, 18mph gusts
  • Sea Temp 61°f
  • Air Temp 59°f
  • Sea Pressure 1023.3mb
  • Grays Reef - 40 Nm Southeast Of Savannah, Ga
  • Grays Reef - 40 Nm Southeast Of Savannah, Ga

More Historic Weather Station data

Upgrade to MSW Pro to gain access to the past 30 days of data for over 8000 Wavebouys and Weather Stations around the globe.

Join Pro

Comparision Forecast

View Surf forecast
   
Mon 03/30 5:50am 2.5ft 9s 5s 16 18 mph 1023.3mb 61f 59f
4:50am 2.5ft 10s 4s 16 18 mph 1023.6mb 61f 58f
3:50am 2.5ft 9s 4s 13 16 mph 1024.2mb 60f 58f
2:50am 2.5ft 8s 5s 13 16 mph 1025.1mb 60f 57f
1:50am 2.5ft 9s 5s 11 16 mph 1025.9mb 60f 57f
12:50am 3ft 8s 5s 11 16 mph 1026.7mb 60f 56f
Sun 03/29 11:50pm 2.5ft 9s 5s 11 13 mph 1027.2mb 60f 56f
10:50pm 3ft 7s 5s 13 16 mph 1027.8mb 60f 55f
9:50pm 3ft 10s 5s 9 11 mph 1028.2mb 60f 54f
8:50pm 3ft 7s 5s 9 11 mph 1028.1mb 60f 54f
7:50pm 3.5ft 7s 5s 7 9 mph 1028.3mb 60f 53f
6:50pm 3.5ft 7s 5s 4 7 mph 1028.4mb 61f 53f
5:50pm 3.5ft 6s 5s 7 11 mph 1028mb 61f 52f
4:50pm 4ft 6s 5s 13 18 mph 1027.3mb 61f 51f
3:50pm 4.5ft 7s 5s 13 16 mph 1028.3mb 61f 51f
2:50pm 4.5ft 6s 5s 13 16 mph 1029.1mb 61f 51f
1:50pm 5ft 6s 5s 16 18 mph 1029.8mb 61f 51f
12:50pm 5.5ft 6s 5s 18 20 mph 1030.1mb 61f 51f
11:50am 5ft 6s 5s 20 25 mph 1030mb 61f 51f
10:50am 5.5ft 6s 5s 22 27 mph 1029.3mb 60f 52f
9:50am 4.5ft 5s 4s 25 31 mph 1028.4mb 60f 52f
8:50am 3ft 4s 4s 25 29 mph 1027mb 60f 52f
7:50am 2.5ft 4s 4s 18 22 mph 1026.5mb 60f 53f
6:50am 2.5ft 4s 4s 16 20 mph 1025.8mb 60f 51f
5:50am 3ft 4s 4s 16 20 mph 1024.8mb 60f 52f
4:50am 2.5ft 4s 4s 18 20 mph 1024mb 60f 53f
3:50am 2.5ft 4s 4s 18 20 mph 1023.6mb 61f 54f
2:50am 2ft 3s 4s 16 20 mph 1023.7mb 61f 55f
1:50am 2ft 3s 4s 13 18 mph 1023.9mb 60f 55f
12:50am 2ft 3s 4s 16 18 mph 1023.6mb 60f 56f
Sat 03/28 11:50pm 2ft 3s 4s 16 20 mph 1023.2mb 60f 56f
10:50pm 2.5ft 4s 4s 16 20 mph 1023mb 60f 57f
9:50pm 2.5ft 4s 4s 16 20 mph 1022.6mb 60f 57f
8:50pm 2.5ft 4s 4s 18 22 mph 1021.5mb 61f 57f
7:50pm 2.5ft 3s 4s 18 25 mph 1020.1mb 61f 58f
6:50pm 2.5ft 4s 4s 16 20 mph 1019.5mb 61f 58f
5:50pm 2.5ft 4s 4s 18 22 mph 1018.6mb 61f 57f
4:50pm 2.5ft 4s 4s 16 22 mph 1018.3mb 62f 56f
3:50pm 2.5ft 4s 4s 16 20 mph 1018.5mb 62f 55f
2:50pm 2.5ft 3s 4s 13 20 mph 1018.8mb 61f 54f
1:50pm 2ft 3s 4s 16 20 mph 1019.6mb 61f 53f
12:50pm 2.5ft 4s 4s 13 18 mph 1019.9mb 60f 51f
11:50am 2.5ft 4s 4s 13 18 mph 1020.2mb 60f 50f
10:50am 2.5ft 4s 4s 13 18 mph 1020.1mb 60f 49f
9:50am 3.5ft 4s 4s 16 20 mph 1019.7mb 60f 49f
8:50am 3.5ft 4s 4s 20 22 mph 1018.4mb 60f 50f
7:50am 3.5ft 4s 4s 20 27 mph 1017.1mb 60f 50f
6:50am 3.5ft 4s 4s 22 27 mph 1016.2mb 60f 51f
5:50am 3ft 4s 4s 22 27 mph 1015.2mb 60f 53f
4:50am 3.5ft 4s 4s 20 22 mph 1014.2mb 61f 54f
3:50am 4ft 4s 4s 20 25 mph 1014mb 61f 54f
2:50am 3.5ft 4s 4s 25 29 mph 1013.4mb 61f 56f
1:50am 3ft 5s 4s 25 31 mph 1012.9mb 60f 57f
12:50am 3ft 4s 4s 20 25 mph 1012.1mb 60f 58f
Fri 03/27 11:50pm 3.5ft 4s 4s 20 25 mph 1011.7mb 60f 59f
10:50pm 3.5ft 4s 4s 22 27 mph 1010.9mb 60f 59f
9:50pm 3.5ft 4s 4s 20 22 mph 1010.5mb 61f 60f
8:50pm 3.5ft 3s 4s 20 25 mph 1009mb 61f 61f
7:50pm 3.5ft 4s 4s 20 25 mph 1007.4mb 61f 61f
6:50pm 3.5ft 4s 4s 18 22 mph 1006.5mb 61f 62f
5:50pm 3ft 8s 4s 20 25 mph 1005.4mb 61f 63f
4:50pm 3ft 8s 5s 18 22 mph 1005.3mb 61f 63f
3:50pm 3ft 8s 5s 13
mph
1004.7mb 61f 64f
2:50pm 2.5ft 8s 5s 16 18 mph 1005.6mb 61f 64f
1:50pm 2.5ft 9s 4s 13 16 mph 1006.5mb 60f 63f
12:50pm 2.5ft 8s 4s 16 18 mph 1007.5mb 60f 63f
11:50am 2.5ft 8s 5s 13 16 mph 1008.2mb 60f 63f
10:50am 2.5ft 8s 5s 11 13 mph 1008.4mb 60f 62f
9:50am 2.5ft 8s 5s 7
mph
1008.7mb 60f 62f
8:50am 2.5ft 7s 5s 13 16 mph 1009mb 60f 63f
7:50am 2.5ft 8s 5s 11
mph
1008mb 60f 62f
6:50am 3ft 8s 5s 9 11 mph 1007.5mb 60f 62f
5:50am 3ft 8s 5s 11 13 mph 1006.9mb 61f 62f
4:50am 3.5ft 8s 5s 16 18 mph 1008.1mb 61f 62f
3:50am 3.5ft 8s 5s 11 13 mph 1008mb 61f 62f
2:50am 3.5ft 8s 4s 18 22 mph 1008.2mb 61f 64f
1:50am 3ft 8s 5s 20 25 mph 1008.7mb 62f 64f
12:50am 3ft 8s 5s 18 20 mph 1009.3mb 62f 64f
Thu 03/26 11:50pm 3ft 8s 5s 16 18 mph 1009.7mb 61f 64f
10:50pm 3.5ft 8s 6s 13 18 mph 1010.3mb 61f 63f
9:50pm 3.5ft 8s 6s 9 11 mph 1010.4mb 61f 64f
8:50pm 3.5ft 8s 7s 11 13 mph 1010.8mb 61f 63f
7:50pm 3.5ft 8s 7s 9 11 mph 1011.6mb 61f 63f
6:50pm 3.5ft 8s 7s 4 7 mph 1011.4mb 62f 63f
5:50pm 3ft 8s 6s 4
mph
1011.7mb 62f 64f
4:50pm 3ft 8s 6s 7
mph
1012.1mb 62f 64f
3:50pm 3ft 9s 6s 7 9 mph 1012.5mb 62f 64f
2:50pm 3ft 8s 6s 9 11 mph 1013.9mb 62f 63f
1:50pm 3.5ft 7s 6s 11 13 mph 1015mb 62f 64f
12:50pm 3ft 8s 6s 9 11 mph 1015.5mb 62f 62f
11:50am 3.5ft 8s 6s 7
mph
1016.4mb 62f 61f